createdAt,value
2022-09-26T00:00:50.204Z,1003.30
2022-09-26T00:01:50.241Z,1003.32
2022-09-26T00:02:50.276Z,1003.31
2022-09-26T00:03:50.172Z,1003.32
2022-09-26T00:04:51.178Z,1003.32
2022-09-26T00:05:50.189Z,1003.28
2022-09-26T00:06:50.162Z,1003.28
2022-09-26T00:07:50.184Z,1003.27
2022-09-26T00:08:50.170Z,1003.22
2022-09-26T00:09:50.164Z,1003.26
2022-09-26T00:10:51.172Z,1003.25
2022-09-26T00:11:50.159Z,1003.26
2022-09-26T00:12:50.147Z,1003.25
2022-09-26T00:13:50.149Z,1003.25
2022-09-26T00:14:50.144Z,1003.24
2022-09-26T00:15:50.145Z,1003.19
2022-09-26T00:16:51.175Z,1003.19
2022-09-26T00:17:50.153Z,1003.20
2022-09-26T00:18:50.124Z,1003.18
2022-09-26T00:19:50.139Z,1003.14
2022-09-26T00:20:50.149Z,1003.14
2022-09-26T00:21:50.135Z,1003.13
2022-09-26T00:22:51.134Z,1003.13
2022-09-26T00:23:50.112Z,1003.17
2022-09-26T00:24:50.125Z,1003.14
2022-09-26T00:25:50.113Z,1003.11
2022-09-26T00:26:50.122Z,1003.12
2022-09-26T00:27:50.124Z,1003.13
2022-09-26T00:28:51.123Z,1003.11
2022-09-26T00:29:50.114Z,1003.15
2022-09-26T00:30:50.230Z,1003.12
2022-09-26T00:31:50.113Z,1003.12
2022-09-26T00:32:50.095Z,1003.13
2022-09-26T00:33:50.088Z,1003.11
2022-09-26T00:34:51.119Z,1003.15
2022-09-26T00:35:50.110Z,1003.14
2022-09-26T00:36:50.090Z,1003.19
2022-09-26T00:37:50.095Z,1003.17
2022-09-26T00:38:50.090Z,1003.13
2022-09-26T00:39:50.086Z,1003.12
2022-09-26T00:40:51.130Z,1003.14
2022-09-26T00:41:50.076Z,1003.12
2022-09-26T00:42:50.056Z,1003.14
2022-09-26T00:43:50.077Z,1003.11
2022-09-26T00:44:50.078Z,1003.10
2022-09-26T00:45:50.136Z,1003.12
2022-09-26T00:46:51.066Z,1003.13
2022-09-26T00:47:50.063Z,1003.15
2022-09-26T00:48:50.052Z,1003.13
2022-09-26T00:49:50.051Z,1003.12
2022-09-26T00:50:50.041Z,1003.11
2022-09-26T00:51:50.045Z,1003.12
2022-09-26T00:52:51.045Z,1003.09
2022-09-26T00:53:50.040Z,1003.06
2022-09-26T00:54:50.042Z,1003.07
2022-09-26T00:55:50.094Z,1003.07
2022-09-26T00:56:50.042Z,1003.08
2022-09-26T00:57:50.025Z,1003.07
2022-09-26T00:58:51.040Z,1003.09
2022-09-26T00:59:50.030Z,1003.10
2022-09-26T01:00:50.085Z,1003.03
2022-09-26T01:01:50.118Z,1003.04
2022-09-26T01:02:50.016Z,1003.04
2022-09-26T01:03:50.026Z,1003.01
2022-09-26T01:04:51.020Z,1003.01
2022-09-26T01:05:50.003Z,1003.00
2022-09-26T01:06:50.013Z,1002.97
2022-09-26T01:07:49.996Z,1002.96
2022-09-26T01:08:50.005Z,1002.97
2022-09-26T01:09:50.007Z,1002.93
2022-09-26T01:10:51.006Z,1002.93
2022-09-26T01:11:50.011Z,1002.91
2022-09-26T01:12:49.987Z,1002.88
2022-09-26T01:13:49.989Z,1002.87
2022-09-26T01:14:49.993Z,1002.84
2022-09-26T01:15:49.978Z,1002.83
2022-09-26T01:16:51.057Z,1002.84
2022-09-26T01:17:49.997Z,1002.86
2022-09-26T01:18:49.970Z,1002.80
2022-09-26T01:19:49.970Z,1002.79
2022-09-26T01:20:49.964Z,1002.83
2022-09-26T01:21:49.978Z,1002.78
2022-09-26T01:22:50.984Z,1002.79
2022-09-26T01:23:49.970Z,1002.79
2022-09-26T01:24:49.949Z,1002.81
2022-09-26T01:25:49.956Z,1002.80
2022-09-26T01:26:49.952Z,1002.80
2022-09-26T01:27:49.947Z,1002.75
2022-09-26T01:28:50.992Z,1002.69
2022-09-26T01:29:49.961Z,1002.70
2022-09-26T01:30:50.038Z,1002.69
2022-09-26T01:31:49.940Z,1002.70
2022-09-26T01:32:49.946Z,1002.67
2022-09-26T01:33:49.928Z,1002.69
2022-09-26T01:34:50.949Z,1002.68
2022-09-26T01:35:49.930Z,1002.66
2022-09-26T01:36:49.929Z,1002.65
2022-09-26T01:37:49.929Z,1002.65
2022-09-26T01:38:49.930Z,1002.63
2022-09-26T01:39:49.920Z,1002.62
2022-09-26T01:40:50.958Z,1002.62
2022-09-26T01:41:49.920Z,1002.60
2022-09-26T01:42:49.899Z,1002.62
2022-09-26T01:43:49.907Z,1002.56
2022-09-26T01:44:49.900Z,1002.56
2022-09-26T01:45:50.086Z,1002.56
2022-09-26T01:46:50.964Z,1002.53
2022-09-26T01:47:49.892Z,1002.50
2022-09-26T01:48:49.882Z,1002.57
2022-09-26T01:49:49.885Z,1002.56
2022-09-26T01:50:49.892Z,1002.54
2022-09-26T01:51:49.887Z,1002.55
2022-09-26T01:52:50.890Z,1002.53
2022-09-26T01:53:49.922Z,1002.57
2022-09-26T01:54:49.875Z,1002.52
2022-09-26T01:55:49.885Z,1002.57
2022-09-26T01:56:49.855Z,1002.55
2022-09-26T01:57:49.869Z,1002.56
2022-09-26T01:58:50.932Z,1002.60
2022-09-26T01:59:49.913Z,1002.54
2022-09-26T02:00:49.937Z,1002.55
2022-09-26T02:01:49.885Z,1002.57
2022-09-26T02:02:49.950Z,1002.59
2022-09-26T02:03:49.898Z,1002.53
2022-09-26T02:04:50.869Z,1002.55
2022-09-26T02:05:49.845Z,1002.46
2022-09-26T02:06:49.829Z,1002.49
2022-09-26T02:07:49.838Z,1002.47
2022-09-26T02:08:49.833Z,1002.46
2022-09-26T02:09:49.842Z,1002.44
2022-09-26T02:10:50.851Z,1002.43
2022-09-26T02:11:49.846Z,1002.40
2022-09-26T02:12:49.821Z,1002.42
2022-09-26T02:13:49.835Z,1002.37
2022-09-26T02:14:49.828Z,1002.39
2022-09-26T02:15:49.822Z,1002.36
2022-09-26T02:16:50.917Z,1002.38
2022-09-26T02:17:49.802Z,1002.30
2022-09-26T02:18:49.812Z,1002.31
2022-09-26T02:19:49.799Z,1002.30
2022-09-26T02:20:49.810Z,1002.27
2022-09-26T02:21:49.786Z,1002.30
2022-09-26T02:22:50.805Z,1002.29
2022-09-26T02:23:49.792Z,1002.30
2022-09-26T02:24:49.779Z,1002.27
2022-09-26T02:25:49.785Z,1002.23
2022-09-26T02:26:49.792Z,1002.30
2022-09-26T02:27:49.785Z,1002.24
2022-09-26T02:28:50.788Z,1002.25
2022-09-26T02:29:49.777Z,1002.24
2022-09-26T02:30:49.786Z,1002.23
2022-09-26T02:31:49.853Z,1002.19
2022-09-26T02:32:49.761Z,1002.20
2022-09-26T02:33:49.762Z,1002.17
2022-09-26T02:34:50.768Z,1002.19
2022-09-26T02:35:49.756Z,1002.15
2022-09-26T02:36:49.762Z,1002.12
2022-09-26T02:37:49.750Z,1002.10
2022-09-26T02:38:49.761Z,1002.13
2022-09-26T02:39:49.775Z,1002.07
2022-09-26T02:40:50.834Z,1002.08
2022-09-26T02:41:49.738Z,1002.09
2022-09-26T02:42:49.745Z,1002.11
2022-09-26T02:43:49.742Z,1002.11
2022-09-26T02:44:49.723Z,1002.11
2022-09-26T02:45:49.778Z,1002.07
2022-09-26T02:46:50.751Z,1002.11
2022-09-26T02:47:49.732Z,1002.09
2022-09-26T02:48:49.725Z,1002.08
2022-09-26T02:49:49.715Z,1002.04
2022-09-26T02:50:49.736Z,1002.06
2022-09-26T02:51:49.722Z,1002.06
2022-09-26T02:52:50.729Z,1002.06
2022-09-26T02:53:49.706Z,1002.06
2022-09-26T02:54:49.719Z,1002.02
2022-09-26T02:55:49.693Z,1002.03
2022-09-26T02:56:49.726Z,1002.00
2022-09-26T02:57:49.689Z,1001.99
2022-09-26T02:58:50.730Z,1001.98
2022-09-26T02:59:49.683Z,1001.97
2022-09-26T03:00:49.747Z,1001.93
2022-09-26T03:01:49.690Z,1001.96
2022-09-26T03:02:49.694Z,1001.95
2022-09-26T03:03:49.729Z,1001.98
2022-09-26T03:04:50.746Z,1001.92
2022-09-26T03:05:49.680Z,1001.94
2022-09-26T03:06:49.687Z,1001.91
2022-09-26T03:07:49.679Z,1001.93
2022-09-26T03:08:49.676Z,1001.91
2022-09-26T03:09:49.657Z,1001.95
2022-09-26T03:10:50.670Z,1001.87
2022-09-26T03:11:49.655Z,1001.92
2022-09-26T03:12:49.649Z,1001.90
2022-09-26T03:13:49.652Z,1001.90
2022-09-26T03:14:49.655Z,1001.89
2022-09-26T03:15:49.640Z,1001.91
2022-09-26T03:16:50.756Z,1001.87
2022-09-26T03:17:49.648Z,1001.87
2022-09-26T03:18:49.648Z,1001.83
2022-09-26T03:19:49.624Z,1001.84
2022-09-26T03:20:49.630Z,1001.81
2022-09-26T03:21:49.639Z,1001.79
2022-09-26T03:22:50.644Z,1001.81
2022-09-26T03:23:49.629Z,1001.80
2022-09-26T03:24:49.627Z,1001.82
2022-09-26T03:25:49.616Z,1001.85
2022-09-26T03:26:49.641Z,1001.84
2022-09-26T03:27:49.630Z,1001.84
2022-09-26T03:28:50.650Z,1001.87
2022-09-26T03:29:49.602Z,1001.83
2022-09-26T03:30:49.605Z,1001.90
2022-09-26T03:31:49.657Z,1001.86
2022-09-26T03:32:49.599Z,1001.86
2022-09-26T03:33:49.599Z,1001.86
2022-09-26T03:34:50.608Z,1001.84
2022-09-26T03:35:49.612Z,1001.85
2022-09-26T03:36:49.589Z,1001.81
2022-09-26T03:37:49.592Z,1001.83
2022-09-26T03:38:49.577Z,1001.83
2022-09-26T03:39:49.569Z,1001.84
2022-09-26T03:40:50.668Z,1001.82
2022-09-26T03:41:49.580Z,1001.78
2022-09-26T03:42:49.576Z,1001.80
2022-09-26T03:43:49.553Z,1001.77
2022-09-26T03:44:49.565Z,1001.72
2022-09-26T03:45:49.607Z,1001.71
2022-09-26T03:46:50.573Z,1001.70
2022-09-26T03:47:49.547Z,1001.67
2022-09-26T03:48:49.591Z,1001.64
2022-09-26T03:49:49.557Z,1001.62
2022-09-26T03:50:49.540Z,1001.67
2022-09-26T03:51:49.568Z,1001.60
2022-09-26T03:52:50.588Z,1001.65
2022-09-26T03:53:49.518Z,1001.62
2022-09-26T03:54:49.534Z,1001.64
2022-09-26T03:55:49.525Z,1001.62
2022-09-26T03:56:49.573Z,1001.63
2022-09-26T03:57:49.520Z,1001.61
2022-09-26T03:58:50.551Z,1001.59
2022-09-26T03:59:49.531Z,1001.59
2022-09-26T04:00:49.545Z,1001.56
2022-09-26T04:01:49.563Z,1001.55
2022-09-26T04:02:49.516Z,1001.55
2022-09-26T04:03:50.893Z,1001.56
2022-09-26T04:04:50.527Z,1001.56
2022-09-26T04:05:49.508Z,1001.56
2022-09-26T04:06:49.511Z,1001.56
2022-09-26T04:07:49.494Z,1001.56
2022-09-26T04:08:49.492Z,1001.61
2022-09-26T04:09:49.491Z,1001.52
2022-09-26T04:10:50.501Z,1001.54
2022-09-26T04:11:49.483Z,1001.50
2022-09-26T04:12:49.484Z,1001.50
2022-09-26T04:13:52.387Z,1001.49
2022-09-26T04:14:49.469Z,1001.45
2022-09-26T04:15:49.458Z,1001.46
2022-09-26T04:16:50.619Z,1001.45
2022-09-26T04:17:49.456Z,1001.39
2022-09-26T04:18:49.466Z,1001.37
2022-09-26T04:19:49.463Z,1001.34
2022-09-26T04:20:49.465Z,1001.33
2022-09-26T04:21:49.490Z,1001.38
2022-09-26T04:22:50.477Z,1001.38
2022-09-26T04:23:49.484Z,1001.39
2022-09-26T04:24:49.472Z,1001.34
2022-09-26T04:25:49.440Z,1001.35
2022-09-26T04:26:49.462Z,1001.36
2022-09-26T04:27:49.453Z,1001.37
2022-09-26T04:28:50.447Z,1001.39
2022-09-26T04:29:49.431Z,1001.37
2022-09-26T04:30:49.435Z,1001.41
2022-09-26T04:31:49.478Z,1001.35
2022-09-26T04:32:49.418Z,1001.33
2022-09-26T04:33:49.440Z,1001.36
2022-09-26T04:34:50.455Z,1001.36
2022-09-26T04:35:49.449Z,1001.35
2022-09-26T04:36:49.412Z,1001.39
2022-09-26T04:37:49.411Z,1001.36
2022-09-26T04:38:49.462Z,1001.37
2022-09-26T04:39:49.408Z,1001.37
2022-09-26T04:40:50.479Z,1001.37
2022-09-26T04:41:49.393Z,1001.38
2022-09-26T04:42:49.385Z,1001.37
2022-09-26T04:43:49.392Z,1001.39
2022-09-26T04:44:49.394Z,1001.36
2022-09-26T04:45:49.423Z,1001.37
2022-09-26T04:46:50.416Z,1001.38
2022-09-26T04:47:49.377Z,1001.34
2022-09-26T04:48:49.369Z,1001.37
2022-09-26T04:49:49.367Z,1001.37
2022-09-26T04:50:49.378Z,1001.34
2022-09-26T04:51:49.368Z,1001.32
2022-09-26T04:52:50.370Z,1001.33
2022-09-26T04:53:49.363Z,1001.37
2022-09-26T04:54:49.362Z,1001.31
2022-09-26T04:55:49.362Z,1001.33
2022-09-26T04:56:49.375Z,1001.29
2022-09-26T04:57:49.363Z,1001.31
2022-09-26T04:58:50.342Z,1001.27
2022-09-26T04:59:49.348Z,1001.28
2022-09-26T05:00:49.423Z,1001.32
2022-09-26T05:01:49.386Z,1001.30
2022-09-26T05:02:49.344Z,1001.32
2022-09-26T05:03:49.327Z,1001.32
2022-09-26T05:04:50.333Z,1001.31
2022-09-26T05:05:49.334Z,1001.29
2022-09-26T05:06:49.341Z,1001.28
2022-09-26T05:07:49.325Z,1001.28
2022-09-26T05:08:49.360Z,1001.27
2022-09-26T05:09:49.317Z,1001.25
2022-09-26T05:10:50.321Z,1001.25
2022-09-26T05:11:49.306Z,1001.21
2022-09-26T05:12:49.298Z,1001.21
2022-09-26T05:13:53.377Z,1001.24
2022-09-26T05:14:49.302Z,1001.21
2022-09-26T05:15:49.311Z,1001.21
2022-09-26T05:16:50.383Z,1001.22
2022-09-26T05:17:49.315Z,1001.19
2022-09-26T05:18:49.284Z,1001.18
2022-09-26T05:19:49.279Z,1001.19
2022-09-26T05:20:49.268Z,1001.22
2022-09-26T05:21:49.344Z,1001.19
2022-09-26T05:22:50.281Z,1001.20
2022-09-26T05:23:49.263Z,1001.21
2022-09-26T05:24:49.269Z,1001.21
2022-09-26T05:25:49.265Z,1001.19
2022-09-26T05:26:49.258Z,1001.19
2022-09-26T05:27:49.252Z,1001.19
2022-09-26T05:28:50.247Z,1001.17
2022-09-26T05:29:49.257Z,1001.16
2022-09-26T05:30:49.234Z,1001.14
2022-09-26T05:31:49.322Z,1001.18
2022-09-26T05:32:49.252Z,1001.18
2022-09-26T05:33:49.222Z,1001.20
2022-09-26T05:34:50.234Z,1001.18
2022-09-26T05:35:49.235Z,1001.17
2022-09-26T05:36:49.241Z,1001.24
2022-09-26T05:37:49.223Z,1001.18
2022-09-26T05:38:49.226Z,1001.16
2022-09-26T05:39:49.226Z,1001.16
2022-09-26T05:40:50.263Z,1001.17
2022-09-26T05:41:49.203Z,1001.19
2022-09-26T05:42:49.213Z,1001.19
2022-09-26T05:43:49.206Z,1001.18
2022-09-26T05:44:49.202Z,1001.21
2022-09-26T05:45:49.214Z,1001.20
2022-09-26T05:46:50.273Z,1001.21
2022-09-26T05:47:49.190Z,1001.20
2022-09-26T05:48:49.208Z,1001.18
2022-09-26T05:49:49.184Z,1001.18
2022-09-26T05:50:49.173Z,1001.17
2022-09-26T05:51:49.179Z,1001.17
2022-09-26T05:52:50.252Z,1001.17
2022-09-26T05:53:49.230Z,1001.15
2022-09-26T05:54:49.215Z,1001.18
2022-09-26T05:55:49.167Z,1001.15
2022-09-26T05:56:49.172Z,1001.16
2022-09-26T05:57:49.153Z,1001.18
2022-09-26T05:58:50.225Z,1001.16
2022-09-26T05:59:49.164Z,1001.16
2022-09-26T06:00:49.204Z,1001.15
2022-09-26T06:01:49.238Z,1001.17
2022-09-26T06:02:49.174Z,1001.14
2022-09-26T06:03:49.139Z,1001.13
2022-09-26T06:04:50.159Z,1001.15
2022-09-26T06:05:49.143Z,1001.15
2022-09-26T06:06:49.148Z,1001.15
2022-09-26T06:07:49.157Z,1001.19
2022-09-26T06:08:49.160Z,1001.17
2022-09-26T06:09:49.126Z,1001.17
2022-09-26T06:10:50.132Z,1001.21
2022-09-26T06:11:49.146Z,1001.20
2022-09-26T06:12:51.157Z,1001.21
2022-09-26T06:13:49.151Z,1001.20
2022-09-26T06:14:49.125Z,1001.19
2022-09-26T06:15:49.106Z,1001.19
2022-09-26T06:16:50.205Z,1001.17
2022-09-26T06:17:49.135Z,1001.18
2022-09-26T06:18:49.130Z,1001.17
2022-09-26T06:19:49.124Z,1001.13
2022-09-26T06:20:49.142Z,1001.19
2022-09-26T06:21:49.108Z,1001.14
2022-09-26T06:22:50.111Z,1001.10
2022-09-26T06:23:49.117Z,1001.08
2022-09-26T06:24:49.091Z,1001.07
2022-09-26T06:25:49.103Z,1001.10
2022-09-26T06:26:49.130Z,1001.07
2022-09-26T06:27:49.084Z,1001.05
2022-09-26T06:28:50.167Z,1001.05
2022-09-26T06:29:49.082Z,1001.05
2022-09-26T06:30:49.095Z,1001.04
2022-09-26T06:31:49.213Z,1001.05
2022-09-26T06:32:49.076Z,1001.02
2022-09-26T06:33:49.076Z,1001.05
2022-09-26T06:34:50.065Z,1001.09
2022-09-26T06:35:49.074Z,1001.04
2022-09-26T06:36:49.061Z,1001.02
2022-09-26T06:37:49.074Z,1001.05
2022-09-26T06:38:49.087Z,1001.03
2022-09-26T06:39:49.072Z,1000.99
2022-09-26T06:40:50.148Z,1000.98
2022-09-26T06:41:49.069Z,1000.98
2022-09-26T06:42:49.036Z,1000.96
2022-09-26T06:43:49.102Z,1000.93
2022-09-26T06:44:49.055Z,1000.92
2022-09-26T06:45:49.035Z,1000.91
2022-09-26T06:46:50.102Z,1000.88
2022-09-26T06:47:49.043Z,1000.90
2022-09-26T06:48:49.042Z,1000.90
2022-09-26T06:49:49.031Z,1000.88
2022-09-26T06:50:49.026Z,1000.90
2022-09-26T06:51:49.034Z,1000.91
2022-09-26T06:52:50.045Z,1000.88
2022-09-26T06:53:49.012Z,1000.84
2022-09-26T06:54:49.032Z,1000.88
2022-09-26T06:55:49.082Z,1000.85
2022-09-26T06:56:49.039Z,1000.87
2022-09-26T06:57:49.011Z,1000.86
2022-09-26T06:58:50.072Z,1000.84
2022-09-26T06:59:49.013Z,1000.82
2022-09-26T07:00:49.128Z,1000.80
2022-09-26T07:01:49.174Z,1000.80
2022-09-26T07:02:49.015Z,1000.78
2022-09-26T07:03:49.090Z,1000.77
2022-09-26T07:04:49.990Z,1000.78
2022-09-26T07:05:49.006Z,1000.79
2022-09-26T07:06:48.984Z,1000.80
2022-09-26T07:07:48.990Z,1000.76
2022-09-26T07:09:01.986Z,1000.81
2022-09-26T07:09:49.016Z,1000.78
2022-09-26T07:10:50.000Z,1000.77
2022-09-26T07:12:13.722Z,1000.80
2022-09-26T07:12:49.006Z,1000.78
2022-09-26T07:13:48.981Z,1000.76
2022-09-26T07:14:53.436Z,1000.76
2022-09-26T07:15:49.015Z,1000.77
2022-09-26T07:16:49.974Z,1000.76
2022-09-26T07:17:48.960Z,1000.79
2022-09-26T07:18:48.952Z,1000.78
2022-09-26T07:19:48.949Z,1000.77
2022-09-26T07:20:51.161Z,1000.77
2022-09-26T07:21:48.977Z,1000.79
2022-09-26T07:22:50.004Z,1000.80
2022-09-26T07:23:48.964Z,1000.78
2022-09-26T07:24:49.030Z,1000.79
2022-09-26T07:25:48.970Z,1000.77
2022-09-26T07:26:48.972Z,1000.79
2022-09-26T07:27:48.973Z,1000.76
2022-09-26T07:28:54.513Z,1000.80
2022-09-26T07:29:49.007Z,1000.82
2022-09-26T07:30:48.944Z,1000.88
2022-09-26T07:31:49.025Z,1000.93
2022-09-26T07:32:48.974Z,1000.92
2022-09-26T07:33:48.963Z,1000.88
2022-09-26T07:34:49.931Z,1000.81
2022-09-26T07:35:48.944Z,1000.88
2022-09-26T07:36:48.947Z,1000.90
2022-09-26T07:37:48.949Z,1000.89
2022-09-26T07:38:48.949Z,1000.87
2022-09-26T07:39:52.637Z,1000.88
2022-09-26T07:40:50.031Z,1000.95
2022-09-26T07:41:48.989Z,1000.93
2022-09-26T07:43:09.297Z,1000.95
2022-09-26T07:45:48.990Z,1000.97
2022-09-26T07:46:50.079Z,1001.04
2022-09-26T07:47:49.061Z,1001.01
2022-09-26T07:48:49.011Z,1001.07
2022-09-26T07:49:49.031Z,1001.07
2022-09-26T07:50:49.032Z,1001.11
2022-09-26T07:51:49.055Z,1001.09
2022-09-26T07:52:50.072Z,1001.08
2022-09-26T07:53:49.061Z,1001.07
2022-09-26T07:54:49.103Z,1001.10
2022-09-26T07:55:49.081Z,1001.08
2022-09-26T07:56:49.091Z,1001.03
2022-09-26T07:57:49.124Z,1000.96
2022-09-26T07:58:50.130Z,1000.99
2022-09-26T07:59:49.129Z,1001.03
2022-09-26T08:00:49.134Z,1000.91
2022-09-26T08:01:49.238Z,1000.97
2022-09-26T08:02:49.215Z,1000.90
2022-09-26T08:03:49.185Z,1000.96
2022-09-26T08:04:50.233Z,1001.01
2022-09-26T08:05:49.204Z,1000.99
2022-09-26T08:06:49.245Z,1000.98
2022-09-26T08:07:49.274Z,1000.93
2022-09-26T08:08:49.260Z,1000.99
2022-09-26T08:09:49.269Z,1000.94
2022-09-26T08:10:50.286Z,1000.95
2022-09-26T08:11:49.360Z,1000.93
2022-09-26T08:12:49.293Z,1000.95
2022-09-26T08:13:49.324Z,1000.91
2022-09-26T08:14:49.347Z,1000.93
2022-09-26T08:15:49.369Z,1000.90
2022-09-26T08:16:50.355Z,1000.86
2022-09-26T08:17:49.369Z,1000.88
2022-09-26T08:18:49.363Z,1000.86
2022-09-26T08:19:49.396Z,1000.83
2022-09-26T08:20:49.446Z,1000.83
2022-09-26T08:21:49.425Z,1000.86
2022-09-26T08:22:50.440Z,1000.83
2022-09-26T08:23:49.450Z,1000.84
2022-09-26T08:24:49.444Z,1000.83
2022-09-26T08:25:49.463Z,1000.81
2022-09-26T08:26:49.474Z,1000.78
2022-09-26T08:27:49.499Z,1000.71
2022-09-26T08:28:50.519Z,1000.70
2022-09-26T08:29:49.539Z,1000.66
2022-09-26T08:30:49.514Z,1000.72
2022-09-26T08:31:49.589Z,1000.71
2022-09-26T08:32:49.536Z,1000.72
2022-09-26T08:33:49.543Z,1000.74
2022-09-26T08:34:50.577Z,1000.73
2022-09-26T08:35:49.562Z,1000.72
2022-09-26T08:36:49.567Z,1000.68
2022-09-26T08:37:49.607Z,1000.65
2022-09-26T08:38:49.597Z,1000.67
2022-09-26T08:39:49.592Z,1000.69
2022-09-26T08:40:50.677Z,1000.68
2022-09-26T08:41:49.609Z,1000.68
2022-09-26T08:42:49.618Z,1000.64
2022-09-26T08:43:49.637Z,1000.64
2022-09-26T08:44:49.622Z,1000.63
2022-09-26T08:45:49.669Z,1000.61
2022-09-26T08:46:50.702Z,1000.60
2022-09-26T08:47:49.656Z,1000.56
2022-09-26T08:48:49.646Z,1000.53
2022-09-26T08:49:49.686Z,1000.58
2022-09-26T08:50:49.663Z,1000.55
2022-09-26T08:51:49.669Z,1000.58
2022-09-26T08:52:50.710Z,1000.53
2022-09-26T08:53:49.683Z,1000.53
2022-09-26T08:54:49.698Z,1000.54
2022-09-26T08:55:49.690Z,1000.51
2022-09-26T08:56:49.744Z,1000.45
2022-09-26T08:57:49.707Z,1000.48
2022-09-26T08:58:50.720Z,1000.42
2022-09-26T08:59:49.693Z,1000.44
2022-09-26T09:00:49.722Z,1000.42
2022-09-26T09:01:49.806Z,1000.38
2022-09-26T09:02:49.724Z,1000.40
2022-09-26T09:03:49.722Z,1000.40
2022-09-26T09:04:53.962Z,1000.36
2022-09-26T09:05:49.730Z,1000.41
2022-09-26T09:06:49.710Z,1000.39
2022-09-26T09:07:49.734Z,1000.32
2022-09-26T09:08:49.721Z,1000.33
2022-09-26T09:09:49.719Z,1000.30
2022-09-26T09:10:50.758Z,1000.28
2022-09-26T09:11:51.164Z,1000.26
2022-09-26T09:12:49.746Z,1000.23
2022-09-26T09:13:49.752Z,1000.22
2022-09-26T09:15:07.586Z,1000.25
2022-09-26T09:15:49.771Z,1000.26
2022-09-26T09:16:50.757Z,1000.24
2022-09-26T09:17:49.746Z,1000.23
2022-09-26T09:18:49.798Z,1000.17
2022-09-26T09:19:49.759Z,1000.17
2022-09-26T09:20:49.736Z,1000.18
2022-09-26T09:21:49.764Z,1000.18
2022-09-26T09:22:50.768Z,1000.15
2022-09-26T09:23:49.753Z,1000.15
2022-09-26T09:24:49.769Z,1000.11
2022-09-26T09:25:49.824Z,1000.11
2022-09-26T09:27:53.661Z,1000.07
2022-09-26T09:28:50.766Z,1000.10
2022-09-26T09:29:49.869Z,1000.10
2022-09-26T09:30:49.772Z,1000.09
2022-09-26T09:31:49.763Z,1000.06
2022-09-26T09:32:49.781Z,1000.06
2022-09-26T09:33:49.764Z,1000.06
2022-09-26T09:34:53.824Z,1000.02
2022-09-26T09:35:49.845Z,1000.04
2022-09-26T09:36:49.776Z,1000.05
2022-09-26T09:37:49.789Z,1000.04
2022-09-26T09:38:49.841Z,1000.04
2022-09-26T09:39:49.793Z,1000.04
2022-09-26T09:40:50.892Z,1000.07
2022-09-26T09:41:49.770Z,1000.05
2022-09-26T09:42:49.773Z,1000.07
2022-09-26T09:43:49.781Z,1000.06
2022-09-26T09:44:49.763Z,1000.04
2022-09-26T09:45:49.771Z,1000.07
2022-09-26T09:46:50.928Z,1000.01
2022-09-26T09:47:49.772Z,1000.04
2022-09-26T09:48:49.825Z,999.98
2022-09-26T09:49:49.784Z,1000.01
2022-09-26T09:50:49.783Z,999.98
2022-09-26T09:51:49.794Z,999.98
2022-09-26T09:52:50.798Z,999.94
2022-09-26T09:53:49.815Z,999.91
2022-09-26T09:54:49.786Z,999.93
2022-09-26T09:55:49.770Z,999.90
2022-09-26T09:56:49.783Z,999.83
2022-09-26T09:57:49.802Z,999.86
2022-09-26T09:58:50.793Z,999.88
2022-09-26T09:59:49.794Z,999.80
2022-09-26T10:00:51.330Z,999.82
2022-09-26T10:01:49.815Z,999.74
2022-09-26T10:02:49.853Z,999.78
2022-09-26T10:03:49.816Z,999.72
2022-09-26T10:04:50.804Z,999.78
2022-09-26T10:05:49.791Z,999.75
2022-09-26T10:06:49.807Z,999.75
2022-09-26T10:07:49.834Z,999.72
2022-09-26T10:08:49.804Z,999.73
2022-09-26T10:09:49.812Z,999.71
2022-09-26T10:10:50.815Z,999.63
2022-09-26T10:11:52.570Z,999.70
2022-09-26T10:12:49.788Z,999.73
2022-09-26T10:13:49.809Z,999.69
2022-09-26T10:14:49.792Z,999.72
2022-09-26T10:15:49.814Z,999.68
2022-09-26T10:16:50.807Z,999.64
2022-09-26T10:18:12.771Z,999.66
2022-09-26T10:18:49.795Z,999.62
2022-09-26T10:19:49.808Z,999.58
2022-09-26T10:20:49.793Z,999.57
2022-09-26T10:21:49.878Z,999.54
2022-09-26T10:22:50.907Z,999.53
2022-09-26T10:23:49.813Z,999.50
2022-09-26T10:24:49.790Z,999.53
2022-09-26T10:25:49.798Z,999.50
2022-09-26T10:26:49.787Z,999.50
2022-09-26T10:27:49.808Z,999.43
2022-09-26T10:28:50.808Z,999.40
2022-09-26T10:29:49.801Z,999.39
2022-09-26T10:30:49.840Z,999.42
2022-09-26T10:31:49.855Z,999.35
2022-09-26T10:32:52.884Z,999.42
2022-09-26T10:33:49.813Z,999.44
2022-09-26T10:34:50.846Z,999.38
2022-09-26T10:35:49.798Z,999.38
2022-09-26T10:36:49.796Z,999.34
2022-09-26T10:37:49.801Z,999.35
2022-09-26T10:38:49.806Z,999.38
2022-09-26T10:39:49.813Z,999.31
2022-09-26T10:40:50.852Z,999.32
2022-09-26T10:41:49.796Z,999.30
2022-09-26T10:42:49.807Z,999.26
2022-09-26T10:43:49.803Z,999.35
2022-09-26T10:44:49.797Z,999.32
2022-09-26T10:45:49.798Z,999.29
2022-09-26T10:46:50.884Z,999.26
2022-09-26T10:47:49.797Z,999.22
2022-09-26T10:48:49.865Z,999.26
2022-09-26T10:49:49.806Z,999.31
2022-09-26T10:50:49.816Z,999.34
2022-09-26T10:51:49.813Z,999.31
2022-09-26T10:52:50.816Z,999.31
2022-09-26T10:53:49.792Z,999.30
2022-09-26T10:54:49.802Z,999.32
2022-09-26T10:55:49.797Z,999.26
2022-09-26T10:56:49.823Z,999.28
2022-09-26T10:57:49.801Z,999.27
2022-09-26T10:58:50.823Z,999.22
2022-09-26T10:59:49.807Z,999.22
2022-09-26T11:00:49.816Z,999.19
2022-09-26T11:01:49.874Z,999.20
2022-09-26T11:02:49.816Z,999.18
2022-09-26T11:03:50.016Z,999.18
2022-09-26T11:04:50.821Z,999.14
2022-09-26T11:05:49.819Z,999.18
2022-09-26T11:06:49.802Z,999.15
2022-09-26T11:07:49.795Z,999.14
2022-09-26T11:08:49.805Z,999.15
2022-09-26T11:09:49.810Z,999.14
2022-09-26T11:10:50.814Z,999.11
2022-09-26T11:11:49.803Z,999.11
2022-09-26T11:12:49.802Z,999.10
2022-09-26T11:13:49.792Z,999.07
2022-09-26T11:14:49.814Z,999.04
2022-09-26T11:15:49.856Z,999.07
2022-09-26T11:16:50.816Z,999.01
2022-09-26T11:17:49.800Z,999.05
2022-09-26T11:18:49.807Z,999.02
2022-09-26T11:19:54.518Z,999.01
2022-09-26T11:20:49.812Z,999.00
2022-09-26T11:21:49.811Z,998.99
2022-09-26T11:22:50.815Z,998.98
2022-09-26T11:23:49.790Z,998.91
2022-09-26T11:24:49.805Z,998.92
2022-09-26T11:25:52.324Z,998.93
2022-09-26T11:27:10.807Z,998.95
2022-09-26T11:29:12.497Z,998.93
2022-09-26T11:31:36.634Z,998.93
2022-09-26T11:34:00.475Z,998.95
2022-09-26T11:36:45.503Z,998.84
2022-09-26T11:38:28.476Z,998.78
2022-09-26T11:39:28.479Z,998.85
2022-09-26T11:41:32.474Z,998.81
2022-09-26T11:42:32.444Z,998.83
2022-09-26T11:44:25.401Z,998.79
2022-09-26T11:45:25.361Z,998.81
2022-09-26T11:47:29.405Z,998.75
2022-09-26T11:48:29.373Z,998.74
2022-09-26T11:50:33.380Z,998.78
2022-09-26T11:51:33.334Z,998.77
2022-09-26T11:53:37.357Z,998.75
2022-09-26T11:54:37.331Z,998.72
2022-09-26T11:56:41.344Z,998.67
2022-09-26T11:57:41.340Z,998.68
2022-09-26T11:59:45.367Z,998.66
2022-09-26T12:00:45.324Z,998.61
2022-09-26T12:02:49.467Z,998.63
2022-09-26T12:03:49.424Z,998.56
2022-09-26T12:05:53.366Z,998.56
2022-09-26T12:06:53.333Z,998.57
2022-09-26T12:08:57.316Z,998.54
2022-09-26T12:09:57.311Z,998.48
2022-09-26T12:12:01.337Z,998.46
2022-09-26T12:13:01.298Z,998.45
2022-09-26T12:14:54.221Z,998.37
2022-09-26T12:15:54.240Z,998.37
2022-09-26T12:17:58.251Z,998.36
2022-09-26T12:18:58.216Z,998.28
2022-09-26T12:21:02.190Z,998.23
2022-09-26T12:22:02.201Z,998.26
2022-09-26T12:24:06.313Z,998.23
2022-09-26T12:25:06.205Z,998.24
2022-09-26T12:27:10.702Z,998.18
2022-09-26T12:28:10.726Z,998.17
2022-09-26T12:29:10.690Z,998.15
2022-09-26T12:30:10.702Z,998.13
2022-09-26T12:31:10.747Z,998.12
2022-09-26T12:32:10.692Z,998.14
2022-09-26T12:33:10.706Z,998.11
2022-09-26T12:34:10.751Z,998.12
2022-09-26T12:35:10.726Z,998.08
2022-09-26T12:36:10.689Z,998.09
2022-09-26T12:37:10.699Z,998.11